Terminal Aerodrome Forecast
Issued by NWS Cleveland, OH

Home | Current Version | Previous Version | Text Only | Print | Product List | Glossary Off
Versions: 1 2 3 4 5 6 7 8 9 10 11 12 13 14 15 16 17

000
FTUS41 KCLE 220322 AAA
TAFCAK
TAF AMD
KCAK 220322Z 2203/2224 21010KT P6SM VCTS SCT025 BKN045CB
      TEMPO 2203/2204 2SM -SHRA BKN012
     FM220400 23008KT P6SM SCT020 BKN045
     FM221000 25006KT 6SM BR BKN012
     FM221400 26007KT P6SM BKN025
     FM221700 27010KT P6SM SCT040=

USA.gov is the U.S. government's official web portal to all federal, state and local government web resources and services.